createdAt,value
2018-07-25T00:01:15.571Z,21.63
2018-07-25T00:03:44.211Z,21.83
2018-07-25T00:06:12.894Z,22.10
2018-07-25T00:08:41.546Z,20.67
2018-07-25T00:11:10.175Z,22.83
2018-07-25T00:13:38.863Z,23.27
2018-07-25T00:16:07.763Z,21.90
2018-07-25T00:18:36.455Z,23.00
2018-07-25T00:21:05.186Z,22.17
2018-07-25T00:23:33.852Z,21.97
2018-07-25T00:26:02.472Z,21.50
2018-07-25T00:28:31.112Z,21.57
2018-07-25T00:30:59.791Z,21.20
2018-07-25T00:33:28.430Z,21.83
2018-07-25T00:35:57.359Z,20.57
2018-07-25T00:38:25.947Z,21.07
2018-07-25T00:40:54.570Z,20.77
2018-07-25T00:43:23.196Z,19.47
2018-07-25T00:45:51.805Z,19.97
2018-07-25T00:48:20.729Z,19.33
2018-07-25T00:50:49.430Z,18.80
2018-07-25T00:53:18.083Z,19.47
2018-07-25T00:55:46.788Z,18.60
2018-07-25T00:58:15.378Z,19.10
2018-07-25T01:00:43.989Z,18.70
2018-07-25T01:03:12.822Z,18.13
2018-07-25T01:05:41.462Z,19.23
2018-07-25T01:08:10.156Z,18.53
2018-07-25T01:10:42.755Z,17.87
2018-07-25T01:13:12.346Z,18.30
2018-07-25T01:15:41.259Z,18.03
2018-07-25T01:18:09.952Z,17.70
2018-07-25T01:20:38.681Z,16.73
2018-07-25T01:23:07.512Z,17.23
2018-07-25T01:25:36.219Z,17.70
2018-07-25T01:28:04.965Z,16.73
2018-07-25T01:30:33.578Z,16.83
2018-07-25T01:33:02.419Z,16.70
2018-07-25T01:35:31.037Z,16.60
2018-07-25T01:38:00.757Z,16.70
2018-07-25T01:40:29.465Z,16.70
2018-07-25T01:42:58.182Z,15.97
2018-07-25T01:45:26.855Z,16.40
2018-07-25T01:47:55.474Z,14.67
2018-07-25T01:50:24.086Z,16.87
2018-07-25T01:52:53.117Z,15.67
2018-07-25T01:55:21.773Z,15.83
2018-07-25T01:57:50.395Z,15.73
2018-07-25T02:00:19.295Z,15.97
2018-07-25T02:02:47.966Z,15.33
2018-07-25T02:05:16.610Z,15.77
2018-07-25T02:07:45.894Z,15.50
2018-07-25T02:10:14.515Z,14.97
2018-07-25T02:12:43.160Z,15.63
2018-07-25T02:15:11.831Z,15.27
2018-07-25T02:17:40.559Z,15.37
2018-07-25T02:20:09.499Z,15.63
2018-07-25T02:22:38.126Z,15.20
2018-07-25T02:25:06.815Z,15.60
2018-07-25T02:27:35.694Z,14.70
2018-07-25T02:30:05.636Z,14.80
2018-07-25T02:32:34.290Z,13.90
2018-07-25T02:35:03.396Z,15.20
2018-07-25T02:37:32.343Z,14.67
2018-07-25T02:40:00.995Z,13.73
2018-07-25T02:42:29.731Z,15.03
2018-07-25T02:44:58.369Z,14.33
2018-07-25T02:47:27.421Z,14.50
2018-07-25T02:49:56.067Z,13.43
2018-07-25T02:52:24.976Z,13.43
2018-07-25T02:54:53.599Z,13.30
2018-07-25T02:57:22.489Z,12.50
2018-07-25T02:59:51.092Z,13.17
2018-07-25T03:02:19.750Z,13.17
2018-07-25T03:04:48.712Z,12.73
2018-07-25T03:07:17.669Z,13.10
2018-07-25T03:09:46.600Z,13.13
2018-07-25T03:12:15.660Z,12.87
2018-07-25T03:14:44.299Z,12.37
2018-07-25T03:17:13.287Z,12.60
2018-07-25T03:19:41.945Z,13.03
2018-07-25T03:22:10.546Z,12.97
2018-07-25T03:24:39.231Z,12.23
2018-07-25T03:27:08.218Z,12.43
2018-07-25T03:29:36.867Z,13.03
2018-07-25T03:32:05.499Z,12.53
2018-07-25T03:34:34.148Z,13.40
2018-07-25T03:37:02.783Z,13.50
2018-07-25T03:39:31.459Z,13.40
2018-07-25T03:42:00.607Z,12.17
2018-07-25T03:44:29.218Z,13.03
2018-07-25T03:46:57.972Z,13.33
2018-07-25T03:49:26.838Z,12.37
2018-07-25T03:51:55.474Z,12.37
2018-07-25T03:54:24.403Z,12.30
2018-07-25T03:56:53.067Z,11.77
2018-07-25T03:59:21.729Z,11.90
2018-07-25T04:01:50.714Z,12.33
2018-07-25T04:04:19.637Z,13.00
2018-07-25T04:06:48.341Z,12.93
2018-07-25T04:09:17.029Z,12.00
2018-07-25T04:11:46.096Z,12.97
2018-07-25T04:14:14.731Z,12.50
2018-07-25T04:16:43.686Z,12.30
2018-07-25T04:19:12.599Z,12.23
2018-07-25T04:21:41.246Z,12.60
2018-07-25T04:24:09.879Z,12.40
2018-07-25T04:26:38.543Z,12.83
2018-07-25T04:29:07.175Z,12.60
2018-07-25T04:31:36.236Z,12.73
2018-07-25T04:34:04.940Z,12.43
2018-07-25T04:36:33.894Z,13.20
2018-07-25T04:39:02.563Z,13.30
2018-07-25T04:41:31.527Z,13.00
2018-07-25T04:44:00.580Z,12.90
2018-07-25T04:46:29.216Z,13.10
2018-07-25T04:48:58.477Z,12.40
2018-07-25T04:51:27.375Z,13.03
2018-07-25T04:53:56.016Z,12.27
2018-07-25T04:56:24.705Z,13.33
2018-07-25T04:58:53.300Z,13.40
2018-07-25T05:01:21.950Z,13.40
2018-07-25T05:03:50.574Z,13.50
2018-07-25T05:06:19.252Z,14.43
2018-07-25T05:08:47.906Z,13.87
2018-07-25T05:11:16.891Z,13.73
2018-07-25T05:13:45.539Z,14.67
2018-07-25T05:16:14.177Z,16.30
2018-07-25T05:21:16.623Z,17.07
2018-07-25T05:23:45.248Z,15.40
2018-07-25T05:26:13.855Z,16.47
2018-07-25T05:28:42.512Z,15.80
2018-07-25T05:31:11.155Z,15.83
2018-07-25T05:33:39.848Z,16.30
2018-07-25T05:36:08.501Z,14.10
2018-07-25T05:38:37.175Z,15.73
2018-07-25T05:41:05.843Z,14.93
2018-07-25T05:43:34.454Z,13.73
2018-07-25T05:46:03.412Z,14.20
2018-07-25T05:48:32.084Z,13.60
2018-07-25T05:51:00.971Z,14.03
2018-07-25T05:53:29.629Z,14.63
2018-07-25T05:55:58.288Z,13.85
2018-07-25T05:58:26.928Z,13.93
2018-07-25T06:00:55.624Z,14.30
2018-07-25T06:03:24.300Z,14.97
2018-07-25T06:05:53.060Z,15.30
2018-07-25T06:08:21.757Z,14.10
2018-07-25T06:10:50.490Z,14.00
2018-07-25T06:13:19.215Z,14.63
2018-07-25T06:15:47.882Z,14.10
2018-07-25T06:18:16.535Z,14.20
2018-07-25T06:20:45.232Z,14.17
2018-07-25T06:23:13.916Z,14.20
2018-07-25T06:25:42.575Z,14.57
2018-07-25T06:28:11.196Z,14.67
2018-07-25T06:30:39.948Z,14.80
2018-07-25T06:33:08.607Z,15.20
2018-07-25T06:35:37.223Z,14.80
2018-07-25T06:38:05.959Z,15.93
2018-07-25T06:40:34.636Z,15.23
2018-07-25T06:43:03.332Z,15.47
2018-07-25T06:45:32.064Z,15.90
2018-07-25T06:48:00.874Z,17.13
2018-07-25T06:50:29.485Z,17.87
2018-07-25T06:52:58.210Z,17.97
2018-07-25T06:55:26.884Z,16.00
2018-07-25T06:57:55.552Z,17.27
2018-07-25T07:00:24.328Z,16.17
2018-07-25T07:02:53.028Z,17.13
2018-07-25T07:05:21.654Z,17.50
2018-07-25T07:07:50.384Z,15.23
2018-07-25T07:10:19.051Z,16.27
2018-07-25T07:12:47.690Z,15.43
2018-07-25T07:15:16.411Z,16.37
2018-07-25T07:17:45.084Z,16.07
2018-07-25T07:20:13.795Z,14.40
2018-07-25T07:22:42.470Z,15.57
2018-07-25T07:25:11.430Z,13.53
2018-07-25T07:27:40.233Z,15.03
2018-07-25T07:30:09.120Z,14.93
2018-07-25T07:32:38.035Z,14.33
2018-07-25T07:35:06.729Z,13.93
2018-07-25T07:37:35.470Z,12.97
2018-07-25T07:40:04.238Z,13.87
2018-07-25T07:42:32.919Z,13.33
2018-07-25T07:45:01.621Z,14.03
2018-07-25T07:47:30.342Z,14.00
2018-07-25T07:49:59.115Z,14.90
2018-07-25T07:52:28.170Z,14.97
2018-07-25T07:54:57.096Z,14.70
2018-07-25T07:57:25.985Z,14.40
2018-07-25T07:59:55.002Z,15.57
2018-07-25T08:02:23.830Z,13.70
2018-07-25T08:04:52.552Z,14.23
2018-07-25T08:07:21.239Z,11.53
2018-07-25T08:09:49.943Z,9.17
2018-07-25T08:12:18.594Z,9.40
2018-07-25T08:14:47.360Z,10.25
2018-07-25T08:17:16.384Z,11.40
2018-07-25T08:19:45.128Z,12.63
2018-07-25T08:22:13.833Z,11.93
2018-07-25T08:24:42.504Z,12.45
2018-07-25T08:27:11.170Z,13.65
2018-07-25T08:29:39.818Z,13.05
2018-07-25T08:32:08.451Z,12.98
2018-07-25T08:34:37.440Z,13.48
2018-07-25T08:37:06.061Z,13.63
2018-07-25T08:39:34.773Z,13.63
2018-07-25T08:42:03.875Z,14.43
2018-07-25T08:44:32.524Z,14.60
2018-07-25T08:47:01.149Z,14.37
2018-07-25T08:49:29.758Z,14.17
2018-07-25T08:51:58.390Z,13.33
2018-07-25T08:54:27.120Z,12.83
2018-07-25T08:56:55.771Z,13.43
2018-07-25T08:59:24.448Z,13.93
2018-07-25T09:01:53.165Z,15.17
2018-07-25T09:04:21.847Z,13.27
2018-07-25T09:06:50.523Z,14.67
2018-07-25T09:09:19.174Z,14.80
2018-07-25T09:11:47.897Z,16.57
2018-07-25T09:14:16.551Z,17.40
2018-07-25T09:16:45.317Z,17.07
2018-07-25T09:19:14.074Z,17.53
2018-07-25T09:21:42.722Z,18.37
2018-07-25T09:24:11.449Z,17.57
2018-07-25T09:26:40.181Z,16.47
2018-07-25T09:29:08.870Z,16.70
2018-07-25T09:31:37.663Z,16.63
2018-07-25T09:34:06.457Z,17.63
2018-07-25T09:36:35.198Z,17.60
2018-07-25T09:39:05.344Z,17.57
2018-07-25T09:41:34.078Z,17.87
2018-07-25T09:44:03.104Z,19.10
2018-07-25T09:46:32.091Z,19.17
2018-07-25T09:49:01.429Z,21.57
2018-07-25T09:51:30.255Z,20.37
2018-07-25T09:53:58.907Z,22.83
2018-07-25T09:56:27.603Z,21.93
2018-07-25T09:58:56.288Z,21.03
2018-07-25T10:01:24.997Z,22.23
2018-07-25T10:03:53.728Z,23.20
2018-07-25T10:06:22.415Z,21.83
2018-07-25T10:08:51.383Z,20.57
2018-07-25T10:11:22.229Z,21.07
2018-07-25T10:13:51.364Z,18.83
2018-07-25T10:16:20.069Z,22.97
2018-07-25T10:18:49.083Z,20.13
2018-07-25T10:21:17.751Z,21.50
2018-07-25T10:23:46.499Z,24.70
2018-07-25T10:26:15.320Z,27.97
2018-07-25T10:28:44.095Z,28.23
2018-07-25T10:31:12.795Z,21.47
2018-07-25T10:33:41.611Z,19.30
2018-07-25T10:36:10.302Z,20.27
2018-07-25T10:38:39.254Z,21.63
2018-07-25T10:41:08.287Z,20.97
2018-07-25T10:43:37.008Z,20.77
2018-07-25T10:46:05.772Z,20.50
2018-07-25T10:48:34.468Z,21.02
2018-07-25T10:51:03.334Z,23.25
2018-07-25T10:53:31.994Z,20.37
2018-07-25T10:56:00.965Z,16.75
2018-07-25T10:58:29.615Z,18.25
2018-07-25T11:00:58.251Z,16.32
2018-07-25T11:03:27.066Z,15.18
2018-07-25T11:05:55.796Z,14.00
2018-07-25T11:08:24.471Z,14.30
2018-07-25T11:10:53.131Z,14.43
2018-07-25T11:13:21.839Z,12.78
2018-07-25T11:15:50.644Z,12.10
2018-07-25T11:18:19.342Z,9.50
2018-07-25T11:20:49.012Z,9.03
2018-07-25T11:23:17.759Z,8.50
2018-07-25T11:25:46.730Z,8.35
2018-07-25T11:28:15.352Z,7.80
2018-07-25T11:30:43.988Z,7.37
2018-07-25T11:33:12.680Z,6.50
2018-07-25T11:35:41.292Z,6.80
2018-07-25T11:38:10.039Z,8.93
2018-07-25T11:40:38.681Z,7.87
2018-07-25T11:43:07.392Z,10.75
2018-07-25T11:45:36.258Z,10.75
2018-07-25T11:48:05.022Z,12.65
2018-07-25T11:50:34.080Z,12.70
2018-07-25T11:53:02.715Z,12.53
2018-07-25T11:55:31.416Z,14.40
2018-07-25T11:58:00.053Z,13.18
2018-07-25T12:00:28.738Z,12.80
2018-07-25T12:02:57.709Z,12.45
2018-07-25T12:05:26.331Z,13.13
2018-07-25T12:07:55.009Z,13.03
2018-07-25T12:10:23.703Z,13.80
2018-07-25T12:12:52.675Z,12.68
2018-07-25T12:15:21.382Z,13.25
2018-07-25T12:17:50.080Z,13.22
2018-07-25T12:20:18.703Z,13.20
2018-07-25T12:22:47.412Z,14.15
2018-07-25T12:25:16.161Z,12.73
2018-07-25T12:27:44.819Z,12.13
2018-07-25T12:30:13.536Z,18.75
2018-07-25T12:32:42.218Z,11.12
2018-07-25T12:35:10.854Z,11.18
2018-07-25T12:37:39.577Z,11.15
2018-07-25T12:40:08.372Z,10.35
2018-07-25T12:42:37.146Z,10.93
2018-07-25T12:45:06.116Z,9.83
2018-07-25T12:47:34.966Z,10.50
2018-07-25T12:50:03.743Z,10.63
2018-07-25T12:52:32.398Z,11.57
2018-07-25T12:55:00.993Z,8.53
2018-07-25T12:57:29.969Z,10.55
2018-07-25T12:59:58.722Z,10.10
2018-07-25T13:02:27.407Z,10.78
2018-07-25T13:04:56.401Z,10.70
2018-07-25T13:07:25.081Z,10.08
2018-07-25T13:09:53.835Z,9.80
2018-07-25T13:12:22.894Z,9.28
2018-07-25T13:14:52.772Z,8.70
2018-07-25T13:17:21.512Z,6.87
2018-07-25T13:19:50.579Z,5.90
2018-07-25T13:22:19.368Z,5.33
2018-07-25T13:24:48.238Z,5.58
2018-07-25T13:27:16.933Z,5.83
2018-07-25T13:29:45.668Z,6.60
2018-07-25T13:32:14.546Z,5.83
2018-07-25T13:34:43.301Z,6.33
2018-07-25T13:37:12.070Z,6.47
2018-07-25T13:39:40.814Z,6.53
2018-07-25T13:42:09.509Z,6.10
2018-07-25T13:44:38.302Z,6.58
2018-07-25T13:47:07.135Z,7.17
2018-07-25T13:49:35.841Z,6.78
2018-07-25T13:52:04.684Z,5.75
2018-07-25T13:54:33.333Z,6.42
2018-07-25T13:57:02.268Z,5.90
2018-07-25T13:59:31.309Z,5.67
2018-07-25T14:01:59.971Z,5.47
2018-07-25T14:04:28.713Z,5.10
2018-07-25T14:06:57.531Z,5.30
2018-07-25T14:09:26.158Z,6.22
2018-07-25T14:11:54.810Z,6.97
2018-07-25T14:14:23.543Z,7.85
2018-07-25T14:16:52.486Z,7.90
2018-07-25T14:19:21.246Z,8.05
2018-07-25T14:21:49.989Z,8.95
2018-07-25T14:24:19.170Z,9.55
2018-07-25T14:26:48.073Z,10.38
2018-07-25T14:29:16.732Z,9.23
2018-07-25T14:31:45.426Z,10.70
2018-07-25T14:34:17.479Z,9.00
2018-07-25T14:36:46.464Z,9.20
2018-07-25T14:39:15.162Z,8.90
2018-07-25T14:41:44.404Z,8.17
2018-07-25T14:44:13.064Z,7.85
2018-07-25T14:46:41.813Z,7.50
2018-07-25T14:49:10.401Z,6.40
2018-07-25T14:51:39.048Z,7.17
2018-07-25T14:54:07.814Z,6.87
2018-07-25T14:56:36.533Z,7.63
2018-07-25T14:59:05.280Z,7.70
2018-07-25T15:01:33.972Z,7.67
2018-07-25T15:04:02.648Z,7.93
2018-07-25T15:06:31.562Z,8.60
2018-07-25T15:09:00.513Z,7.07
2018-07-25T15:11:29.288Z,6.90
2018-07-25T15:13:57.983Z,7.07
2018-07-25T15:16:26.910Z,7.30
2018-07-25T15:18:55.887Z,8.23
2018-07-25T15:21:24.552Z,9.20
2018-07-25T15:24:02.493Z,8.03
2018-07-25T15:26:31.432Z,8.83
2018-07-25T15:29:00.879Z,9.30
2018-07-25T15:31:29.999Z,9.77
2018-07-25T15:33:58.896Z,10.60
2018-07-25T15:36:44.498Z,9.97
2018-07-25T15:39:20.978Z,9.83
2018-07-25T15:41:50.483Z,9.63
2018-07-25T15:44:20.189Z,11.13
2018-07-25T15:46:49.507Z,9.83
2018-07-25T15:49:18.245Z,9.77
2018-07-25T15:51:47.045Z,9.37
2018-07-25T15:54:15.809Z,9.10
2018-07-25T15:56:44.671Z,9.43
2018-07-25T15:59:13.360Z,9.07
2018-07-25T16:01:42.093Z,9.73
2018-07-25T16:04:11.186Z,11.10
2018-07-25T16:06:40.237Z,10.50
2018-07-25T16:09:11.424Z,11.17
2018-07-25T16:11:40.667Z,12.07
2018-07-25T16:14:09.512Z,10.00
2018-07-25T16:16:38.479Z,10.37
2018-07-25T16:19:07.273Z,10.63
2018-07-25T16:21:36.249Z,8.77
2018-07-25T16:24:05.045Z,9.50
2018-07-25T16:26:33.673Z,7.27
2018-07-25T16:29:03.116Z,5.77
2018-07-25T16:31:31.863Z,6.87
2018-07-25T16:34:01.206Z,6.27
2018-07-25T16:36:29.906Z,10.90
2018-07-25T16:38:58.606Z,4.77
2018-07-25T16:41:27.378Z,6.20
2018-07-25T16:43:56.473Z,5.27
2018-07-25T16:46:25.277Z,6.90
2018-07-25T16:48:54.415Z,4.30
2018-07-25T16:51:23.930Z,6.73
2018-07-25T16:53:52.917Z,6.13
2018-07-25T16:56:21.919Z,6.13
2018-07-25T16:58:50.894Z,6.47
2018-07-25T17:01:19.586Z,6.83
2018-07-25T17:03:48.321Z,10.00
2018-07-25T17:06:17.130Z,12.07
2018-07-25T17:08:45.962Z,12.73
2018-07-25T17:11:14.583Z,14.43
2018-07-25T17:13:43.817Z,13.33
2018-07-25T17:16:12.833Z,13.77
2018-07-25T17:18:41.911Z,14.90
2018-07-25T17:21:11.002Z,15.30
2018-07-25T17:23:40.126Z,16.23
2018-07-25T17:26:09.214Z,16.73
2018-07-25T17:28:38.204Z,17.83
2018-07-25T17:31:07.366Z,16.03
2018-07-25T17:33:36.325Z,17.97
2018-07-25T17:36:05.073Z,16.07
2018-07-25T17:38:34.035Z,16.87
2018-07-25T17:41:02.791Z,18.17
2018-07-25T17:43:31.718Z,16.23
2018-07-25T17:46:00.427Z,15.60
2018-07-25T17:48:29.172Z,19.87
2018-07-25T17:50:57.881Z,15.77
2018-07-25T17:53:27.448Z,14.60
2018-07-25T17:55:56.582Z,13.10
2018-07-25T17:58:25.650Z,13.00
2018-07-25T18:00:54.324Z,12.63
2018-07-25T18:03:23.344Z,11.70
2018-07-25T18:05:52.363Z,12.03
2018-07-25T18:08:21.412Z,10.90
2018-07-25T18:10:50.222Z,11.40
2018-07-25T18:13:24.117Z,10.70
2018-07-25T18:15:53.148Z,11.57
2018-07-25T18:18:23.524Z,14.63
2018-07-25T18:20:52.238Z,11.30
2018-07-25T18:23:21.207Z,10.60
2018-07-25T18:25:50.144Z,10.83
2018-07-25T18:28:18.847Z,10.13
2018-07-25T18:30:47.578Z,10.30
2018-07-25T18:33:16.365Z,10.37
2018-07-25T18:35:45.125Z,11.10
2018-07-25T18:38:13.793Z,10.30
2018-07-25T18:40:42.558Z,11.07
2018-07-25T18:43:11.264Z,11.40
2018-07-25T18:45:40.397Z,10.73
2018-07-25T18:48:09.602Z,9.87
2018-07-25T18:55:55.607Z,12.60
2018-07-25T18:58:24.285Z,10.07
2018-07-25T19:00:53.373Z,10.53
2018-07-25T19:03:22.275Z,12.10
2018-07-25T19:05:50.903Z,10.13
2018-07-25T19:08:19.543Z,10.17
2018-07-25T19:10:48.198Z,10.77
2018-07-25T19:13:21.943Z,12.93
2018-07-25T19:15:51.203Z,9.70
2018-07-25T19:18:20.143Z,9.93
2018-07-25T19:20:49.319Z,10.00
2018-07-25T19:23:18.045Z,10.67
2018-07-25T19:25:47.017Z,10.53
2018-07-25T19:28:16.106Z,10.43
2018-07-25T19:30:45.003Z,12.67
2018-07-25T19:33:13.674Z,12.60
2018-07-25T19:35:42.842Z,12.50
2018-07-25T19:38:11.506Z,10.10
2018-07-25T19:40:40.130Z,9.87
2018-07-25T19:43:08.814Z,10.73
2018-07-25T19:45:37.594Z,10.30
2018-07-25T19:48:06.467Z,10.20
2018-07-25T19:50:35.219Z,10.40
2018-07-25T19:53:06.943Z,9.23
2018-07-25T19:55:35.853Z,11.50
2018-07-25T19:58:04.923Z,9.90
2018-07-25T20:00:33.814Z,10.40
2018-07-25T20:03:02.792Z,10.77
2018-07-25T20:05:31.725Z,14.03
2018-07-25T20:08:00.894Z,11.23
2018-07-25T20:10:29.886Z,12.30
2018-07-25T20:12:58.637Z,10.97
2018-07-25T20:15:32.298Z,12.20
2018-07-25T20:18:01.272Z,12.13
2018-07-25T20:20:30.870Z,12.00
2018-07-25T20:22:59.487Z,13.57
2018-07-25T20:25:28.152Z,12.80
2018-07-25T20:27:57.102Z,14.43
2018-07-25T20:30:25.764Z,14.13
2018-07-25T20:32:55.058Z,12.27
2018-07-25T20:35:23.774Z,12.70
2018-07-25T20:37:52.448Z,11.73
2018-07-25T20:40:21.123Z,12.10
2018-07-25T20:42:49.903Z,12.50
2018-07-25T20:45:18.605Z,13.10
2018-07-25T20:47:47.269Z,12.50
2018-07-25T20:50:15.886Z,12.63
2018-07-25T20:52:44.596Z,11.67
2018-07-25T20:55:14.001Z,11.87
2018-07-25T20:57:42.652Z,12.70
2018-07-25T21:00:11.558Z,12.43
2018-07-25T21:02:40.242Z,12.13
2018-07-25T21:05:08.915Z,12.27
2018-07-25T21:07:37.595Z,12.60
2018-07-25T21:10:06.335Z,11.57
2018-07-25T21:12:34.945Z,12.20
2018-07-25T21:15:03.658Z,11.77
2018-07-25T21:17:32.639Z,12.80
2018-07-25T21:20:01.273Z,12.43
2018-07-25T21:22:29.980Z,15.30
2018-07-25T21:24:58.635Z,12.17
2018-07-25T21:27:27.210Z,12.13
2018-07-25T21:29:55.835Z,12.23
2018-07-25T21:32:24.863Z,11.47
2018-07-25T21:34:53.517Z,11.63
2018-07-25T21:37:22.139Z,12.13
2018-07-25T21:39:50.827Z,12.03
2018-07-25T21:42:19.510Z,11.70
2018-07-25T21:44:48.158Z,12.27
2018-07-25T21:47:16.759Z,13.10
2018-07-25T21:49:45.446Z,12.73
2018-07-25T21:52:14.106Z,11.87
2018-07-25T21:54:42.814Z,12.10
2018-07-25T21:57:11.501Z,12.40
2018-07-25T21:59:40.195Z,12.50
2018-07-25T22:02:09.172Z,12.10
2018-07-25T22:04:38.115Z,12.30
2018-07-25T22:07:06.883Z,12.63
2018-07-25T22:09:35.513Z,12.23
2018-07-25T22:12:04.133Z,12.40
2018-07-25T22:14:32.842Z,12.30
2018-07-25T22:17:01.470Z,13.33
2018-07-25T22:19:30.110Z,12.77
2018-07-25T22:21:58.787Z,13.03
2018-07-25T22:24:27.688Z,12.10
2018-07-25T22:26:56.348Z,12.57
2018-07-25T22:29:25.096Z,11.90
2018-07-25T22:31:54.099Z,11.73
2018-07-25T22:34:23.011Z,11.90
2018-07-25T22:36:51.892Z,12.17
2018-07-25T22:39:20.574Z,11.33
2018-07-25T22:41:49.218Z,11.83
2018-07-25T22:44:18.111Z,12.27
2018-07-25T22:46:46.739Z,11.53
2018-07-25T22:49:15.362Z,11.27
2018-07-25T22:51:44.275Z,11.03
2018-07-25T22:54:13.222Z,11.97
2018-07-25T22:56:42.005Z,10.93
2018-07-25T22:59:10.647Z,10.60
2018-07-25T23:01:39.536Z,11.03
2018-07-25T23:04:08.158Z,10.13
2018-07-25T23:06:36.783Z,10.50
2018-07-25T23:09:08.171Z,10.80
2018-07-25T23:11:36.864Z,10.10
2018-07-25T23:14:05.572Z,10.33
2018-07-25T23:16:34.263Z,10.80
2018-07-25T23:19:02.890Z,10.47
2018-07-25T23:21:31.485Z,9.93
2018-07-25T23:24:00.156Z,10.57
2018-07-25T23:26:28.859Z,10.23
2018-07-25T23:28:57.523Z,10.03
2018-07-25T23:31:26.249Z,9.90
2018-07-25T23:33:54.903Z,10.07
2018-07-25T23:36:23.832Z,10.23
2018-07-25T23:38:52.479Z,9.87
2018-07-25T23:41:21.111Z,9.90
2018-07-25T23:43:49.751Z,10.50
2018-07-25T23:46:18.824Z,9.47
2018-07-25T23:48:47.415Z,9.33
2018-07-25T23:51:16.081Z,10.20
2018-07-25T23:53:45.371Z,9.73
2018-07-25T23:56:14.075Z,10.33
2018-07-25T23:58:42.781Z,9.67
